Brighton, Canada
Current Conditions -  °F | °C
As of 12:00 AM on Thursday 18 Dec 2014 (Local Time) from CYTR Reporting Station
Overcast Overcast  
Wind Chill: 29°   Ceiling: 3700
Heat Index: 36°   Visibility: 15mi
Dew Point: 30°   Wind: 9mph
Humidity: 81%   Direction: 270°W
Pressure: 29.89"   Gusts: NA
Location:  44.03°N, 77.73°W
Report Text: CYTR 180500Z 27008KT 15SM FEW018 OVC037 02/M01 A2989 RMK SC2SC6 SLP126
Loading
Personal Weather Stations






























Interactive Weather Map New forecast layout! Learn more

10-Day Weather Forecast

Advertisements
Track Severe Weather on mobile